Terminal Aerodrome Forecast
Issued by NWS Cleveland, OH

Home | Current Version | Previous Version | Graphics & Text | Print | Product List | Glossary On
Versions: 1 2 3 4 5 6 7 8 9 10 11 12 13 14 15 16 17 18 19 20 21 22
785
FTUS41 KCLE 011253 AAA
TAFERI
TAF AMD
KERI 011253Z 0113/0212 35005KT 1SM -DZ BR BKN004 OVC010
      TEMPO 0113/0117 3SM BR SCT004
     FM011800 03006KT P6SM SCT004 OVC010
     FM020100 VRB03KT 3SM BR OVC006
     FM020500 VRB03KT 2SM -RA BR OVC004=

USA.gov is the U.S. government's official web portal to all federal, state and local government web resources and services.